地図

経路データ

SID SEASON NUMBER BASIN SUBBASIN NAME ISO_TIME NATURE LAT LON WMO_WIND WMO_PRES WMO_AGENCY TRACK_TYPE DIST2LAND LANDFALL IFLAG USA_AGENCY USA_ATCF_ID USA_LAT USA_LON USA_RECORD USA_STATUS USA_WIND USA_PRES USA_SSHS USA_R34_NE USA_R34_SE USA_R34_SW USA_R34_NW USA_R50_NE USA_R50_SE USA_R50_SW USA_R50_NW USA_R64_NE USA_R64_SE USA_R64_SW USA_R64_NW USA_POCI USA_ROCI USA_RMW USA_EYE TOKYO_LAT TOKYO_LON TOKYO_GRADE TOKYO_WIND TOKYO_PRES TOKYO_R50_DIR TOKYO_R50_LONG TOKYO_R50_SHORT TOKYO_R30_DIR TOKYO_R30_LONG TOKYO_R30_SHORT TOKYO_LAND CMA_LAT CMA_LON CMA_CAT CMA_WIND CMA_PRES HKO_LAT HKO_LON HKO_CAT HKO_WIND HKO_PRES NEWDELHI_LAT NEWDELHI_LON NEWDELHI_GRADE NEWDELHI_WIND NEWDELHI_PRES NEWDELHI_CI NEWDELHI_DP NEWDELHI_POCI REUNION_LAT REUNION_LON REUNION_TYPE REUNION_WIND REUNION_PRES REUNION_TNUM REUNION_CI REUNION_RMW REUNION_R34_NE REUNION_R34_SE REUNION_R34_SW REUNION_R34_NW REUNION_R50_NE REUNION_R50_SE REUNION_R50_SW REUNION_R50_NW REUNION_R64_NE REUNION_R64_SE REUNION_R64_SW REUNION_R64_NW BOM_LAT BOM_LON BOM_TYPE BOM_WIND BOM_PRES BOM_TNUM BOM_CI BOM_RMW BOM_R34_NE BOM_R34_SE BOM_R34_SW BOM_R34_NW BOM_R50_NE BOM_R50_SE BOM_R50_SW BOM_R50_NW BOM_R64_NE BOM_R64_SE BOM_R64_SW BOM_R64_NW BOM_ROCI BOM_POCI BOM_EYE BOM_POS_METHOD BOM_PRES_METHOD NADI_LAT NADI_LON NADI_CAT NADI_WIND NADI_PRES WELLINGTON_LAT WELLINGTON_LON WELLINGTON_WIND WELLINGTON_PRES DS824_LAT DS824_LON DS824_STAGE DS824_WIND DS824_PRES TD9636_LAT TD9636_LON TD9636_STAGE TD9636_WIND TD9636_PRES TD9635_LAT TD9635_LON TD9635_WIND TD9635_PRES TD9635_ROCI NEUMANN_LAT NEUMANN_LON NEUMANN_CLASS NEUMANN_WIND NEUMANN_PRES MLC_LAT MLC_LON MLC_CLASS MLC_WIND MLC_PRES USA_GUST BOM_GUST BOM_GUST_PER REUNION_GUST REUNION_GUST_PER USA_SEAHGT USA_SEARAD_NE USA_SEARAD_SE USA_SEARAD_SW USA_SEARAD_NW STORM_SPEED STORM_DIR
1911070S16065 1911 21 SI MM NOT_NAMED 1911-03-11 00:00:00 TS -15.5000 64.6000 spur-split 893 860 _________O____ -1 -15.5000 64.6000 TC 7 245
1911070S16065 1911 21 SI MM NOT_NAMED 1911-03-11 03:00:00 TS -15.6376 64.2925 spur-split 860 821 _________P____ -1 -15.6376 64.2925 TC 7 243
1911070S16065 1911 21 SI MM NOT_NAMED 1911-03-11 06:00:00 TS -15.8000 64.0000 spur-split 821 782 _________O____ -1 -15.8000 64.0000 TC 6 236
1911070S16065 1911 21 SI MM NOT_NAMED 1911-03-11 09:00:00 TS -16.0000 63.7350 spur-split 782 752 _________P____ -1 -16.0000 63.7350 TC 6 230
1911070S16065 1911 21 SI MM NOT_NAMED 1911-03-11 12:00:00 TS -16.2000 63.5000 spur-split 752 728 _________O____ -1 -16.2000 63.5000 TC 6 230
1911070S16065 1911 21 SI MM NOT_NAMED 1911-03-11 15:00:00 TS -16.3500 63.2924 spur-split 728 697 _________P____ -1 -16.3500 63.2924 TC 5 232
1911070S16065 1911 21 SI MM NOT_NAMED 1911-03-11 18:00:00 TS -16.5000 63.1000 spur-split 697 667 _________O____ -1 -16.5000 63.1000 TC 5 227
1911070S16065 1911 21 SI MM NOT_NAMED 1911-03-11 21:00:00 TS -16.7075 62.8925 spur-split 667 637 _________P____ -1 -16.7075 62.8925 TC 6 224
1911070S16065 1911 21 SI MM NOT_NAMED 1911-03-12 00:00:00 TS -16.9000 62.7000 spur-split 637 622 _________O____ -1 -16.9000 62.7000 TC 5 227
1911070S16065 1911 21 SI MM NOT_NAMED 1911-03-12 03:00:00 TS -17.0150 62.5424 spur-split 613 598 _________P____ -1 -17.0150 62.5424 TC 4 235
1911070S16065 1911 21 SI MM NOT_NAMED 1911-03-12 06:00:00 TS -17.1000 62.4000 spur-split 598 583 _________O____ -1 -17.1000 62.4000 TC 3 238
1911070S16065 1911 21 SI MM NOT_NAMED 1911-03-12 09:00:00 TS -17.1925 62.2425 spur-split 574 559 _________P____ -1 -17.1925 62.2425 TC 4 235
1911070S16065 1911 21 SI MM NOT_NAMED 1911-03-12 12:00:00 TS -17.3000 62.1000 spur-split 559 544 _________O____ -1 -17.3000 62.1000 TC 3 224
1911070S16065 1911 21 SI MM NOT_NAMED 1911-03-12 15:00:00 TS -17.4425 61.9925 spur-split 544 523 _________P____ -1 -17.4425 61.9925 TC 4 212
1911070S16065 1911 21 SI MM NOT_NAMED 1911-03-12 18:00:00 TS -17.6000 61.9000 spur-split 523 508 _________O____ -1 -17.6000 61.9000 TC 3 215
1911070S16065 1911 21 SI MM NOT_NAMED 1911-03-12 21:00:00 TS -17.7125 61.7999 spur-split 508 487 _________P____ -1 -17.7125 61.7999 TC 4 212
1911070S16065 1911 21 SI MM NOT_NAMED 1911-03-13 00:00:00 TS -17.9000 61.7000 spur-split 487 461 _________O____ -1 -17.9000 61.7000 TC 6 202
1911070S16065 1911 21 SI MM NOT_NAMED 1911-03-13 03:00:00 TS -18.2700 61.5702 spur-split 456 427 _________P____ -1 -18.2700 61.5702 TC 8 193
1911070S16065 1911 21 SI MM NOT_NAMED 1911-03-13 06:00:00 TS -18.7000 61.5000 spur-split 427 409 _________O____ -1 -18.7000 61.5000 TC 8 0
1911070S16065 1911 21 SI MM NOT_NAMED 1911-03-13 09:00:00 TS -19.0725 61.5549 spur-split 419 412 _________P____ -1 -19.0725 61.5549 TC 7 165
1911070S16065 1911 21 SI MM NOT_NAMED 1911-03-13 12:00:00 TS -19.4000 61.7000 spur-split 420 417 _________O____ -1 -19.4000 61.7000 TC 7 153
1911070S16065 1911 21 SI MM NOT_NAMED 1911-03-13 15:00:00 TS -19.6725 61.8775 spur-split 433 431 _________P____ -1 -19.6725 61.8775 TC 6 143
1911070S16065 1911 21 SI MM NOT_NAMED 1911-03-13 18:00:00 TS -19.9000 62.1000 spur-split 451 451 _________O____ -1 -19.9000 62.1000 TC 6 135
1911070S16065 1911 21 SI MM NOT_NAMED 1911-03-13 21:00:00 TS -20.1150 62.3500 spur-split 480 470 _________P____ -1 -20.1150 62.3500 TC 6 130
1911070S16065 1911 21 SI MM NOT_NAMED 1911-03-14 00:00:00 TS -20.3000 62.6000 spur-split 500 500 _________O____ -1 -20.3000 62.6000 TC 6 129
1911070S16065 1911 21 SI MM NOT_NAMED 1911-03-14 03:00:00 TS -20.4574 62.8076 spur-split 521 521 _________P____ -1 -20.4574 62.8076 TC 5 129
1911070S16065 1911 21 SI MM NOT_NAMED 1911-03-14 06:00:00 TS -20.6000 63.0000 spur-split 542 542 _________O____ -1 -20.6000 63.0000 TC 5 129
1911070S16065 1911 21 SI MM NOT_NAMED 1911-03-14 09:00:00 TS -20.7500 63.2000 spur-split 564 564 _________P____ -1 -20.7500 63.2000 TC 5 129
1911070S16065 1911 21 SI MM NOT_NAMED 1911-03-14 12:00:00 TS -20.9000 63.4000 spur-split 586 586 _________O____ -1 -20.9000 63.4000 TC 5 130
1911070S16065 1911 21 SI MM NOT_NAMED 1911-03-14 15:00:00 TS -21.0574 63.5925 spur-split 609 609 _________P____ -1 -21.0574 63.5925 TC 5 129
1911070S16065 1911 21 SI MM NOT_NAMED 1911-03-14 18:00:00 TS -21.2000 63.8000 spur-split 631 631 _________O____ -1 -21.2000 63.8000 TC 5 121
1911070S16065 1911 21 SI MM NOT_NAMED 1911-03-14 21:00:00 TS -21.3101 64.0399 spur-split 653 653 _________P____ -1 -21.3101 64.0399 TC 5 113
1911070S16065 1911 21 SI MM NOT_NAMED 1911-03-15 00:00:00 TS -21.4000 64.3000 spur-split 686 _________O____ -1 -21.4000 64.3000 TC 5 111

IBTrACS Databaseについて

本データベースは、米国NOAAが公開する1842年以降の世界の熱帯低気圧のベストトラックデータアーカイブInternational Best Track Archive for Climate Stewardship (IBTrACS)を、ウェブで閲覧しやすい形式に変換したものです。

最終更新日:2021-11-26